sensor_id;sensor_type;location;lat;lon;timestamp;P1;durP1;ratioP1;P2;durP2;ratioP2
77170;SDS011;66144;50.020;14.422;2023-02-18T00:01:27;4.53;;;2.58;;
77170;SDS011;66144;50.020;14.422;2023-02-18T00:03:54;6.90;;;3.55;;
77170;SDS011;66144;50.020;14.422;2023-02-18T00:06:24;5.00;;;2.78;;
77170;SDS011;66144;50.020;14.422;2023-02-18T00:08:51;5.55;;;3.10;;
77170;SDS011;66144;50.020;14.422;2023-02-18T00:11:18;5.18;;;2.60;;
77170;SDS011;66144;50.020;14.422;2023-02-18T00:13:49;4.25;;;2.42;;
77170;SDS011;66144;50.020;14.422;2023-02-18T00:16:15;4.57;;;2.50;;
77170;SDS011;66144;50.020;14.422;2023-02-18T00:18:41;5.45;;;2.97;;
77170;SDS011;66144;50.020;14.422;2023-02-18T00:21:06;5.35;;;2.50;;
77170;SDS011;66144;50.020;14.422;2023-02-18T00:23:33;4.53;;;2.50;;
77170;SDS011;66144;50.020;14.422;2023-02-18T00:25:59;3.28;;;2.17;;
77170;SDS011;66144;50.020;14.422;2023-02-18T00:28:27;3.63;;;2.33;;
77170;SDS011;66144;50.020;14.422;2023-02-18T00:30:53;4.40;;;1.90;;
77170;SDS011;66144;50.020;14.422;2023-02-18T00:33:19;3.75;;;2.15;;
77170;SDS011;66144;50.020;14.422;2023-02-18T00:35:44;3.47;;;2.05;;
77170;SDS011;66144;50.020;14.422;2023-02-18T00:38:10;3.60;;;2.10;;
77170;SDS011;66144;50.020;14.422;2023-02-18T00:40:39;4.70;;;2.38;;
77170;SDS011;66144;50.020;14.422;2023-02-18T00:43:05;3.38;;;1.90;;
77170;SDS011;66144;50.020;14.422;2023-02-18T00:45:31;4.45;;;2.30;;
77170;SDS011;66144;50.020;14.422;2023-02-18T00:47:57;3.33;;;1.88;;
77170;SDS011;66144;50.020;14.422;2023-02-18T00:50:22;3.83;;;2.00;;
77170;SDS011;66144;50.020;14.422;2023-02-18T00:52:47;3.22;;;2.25;;
77170;SDS011;66144;50.020;14.422;2023-02-18T00:55:13;3.70;;;2.25;;
77170;SDS011;66144;50.020;14.422;2023-02-18T00:57:38;3.83;;;2.05;;
77170;SDS011;66144;50.020;14.422;2023-02-18T01:00:04;4.03;;;2.30;;
77170;SDS011;66144;50.020;14.422;2023-02-18T01:02:31;3.83;;;2.28;;
77170;SDS011;66144;50.020;14.422;2023-02-18T01:04:56;5.13;;;2.25;;
77170;SDS011;66144;50.020;14.422;2023-02-18T01:07:22;4.60;;;2.22;;
77170;SDS011;66144;50.020;14.422;2023-02-18T01:09:47;4.03;;;2.08;;
77170;SDS011;66144;50.020;14.422;2023-02-18T01:12:12;4.40;;;2.58;;
77170;SDS011;66144;50.020;14.422;2023-02-18T01:14:38;3.63;;;2.20;;
77170;SDS011;66144;50.020;14.422;2023-02-18T01:17:03;3.92;;;2.15;;
77170;SDS011;66144;50.020;14.422;2023-02-18T01:19:29;3.22;;;1.90;;
77170;SDS011;66144;50.020;14.422;2023-02-18T01:21:54;3.15;;;1.90;;
77170;SDS011;66144;50.020;14.422;2023-02-18T01:24:20;3.10;;;2.13;;
77170;SDS011;66144;50.020;14.422;2023-02-18T01:26:45;3.45;;;1.90;;
77170;SDS011;66144;50.020;14.422;2023-02-18T01:29:10;3.60;;;1.80;;
77170;SDS011;66144;50.020;14.422;2023-02-18T01:31:36;3.00;;;1.67;;
77170;SDS011;66144;50.020;14.422;2023-02-18T01:34:01;3.95;;;1.95;;
77170;SDS011;66144;50.020;14.422;2023-02-18T01:36:26;3.10;;;1.70;;
77170;SDS011;66144;50.020;14.422;2023-02-18T01:38:52;3.20;;;1.73;;
77170;SDS011;66144;50.020;14.422;2023-02-18T01:41:17;4.45;;;1.95;;
77170;SDS011;66144;50.020;14.422;2023-02-18T01:43:43;3.88;;;1.83;;
77170;SDS011;66144;50.020;14.422;2023-02-18T01:46:18;3.60;;;1.67;;
77170;SDS011;66144;50.020;14.422;2023-02-18T01:51:23;3.35;;;1.70;;
77170;SDS011;66144;50.020;14.422;2023-02-18T01:53:59;3.67;;;1.70;;
77170;SDS011;66144;50.020;14.422;2023-02-18T01:56:31;3.90;;;1.70;;
77170;SDS011;66144;50.020;14.422;2023-02-18T01:59:02;3.00;;;1.55;;
77170;SDS011;66144;50.020;14.422;2023-02-18T02:01:31;3.50;;;1.80;;
77170;SDS011;66144;50.020;14.422;2023-02-18T02:03:57;2.75;;;1.60;;
77170;SDS011;66144;50.020;14.422;2023-02-18T02:06:23;2.92;;;1.67;;
77170;SDS011;66144;50.020;14.422;2023-02-18T02:08:50;2.58;;;1.35;;
77170;SDS011;66144;50.020;14.422;2023-02-18T02:11:25;3.92;;;1.95;;
77170;SDS011;66144;50.020;14.422;2023-02-18T02:14:10;2.75;;;1.65;;
77170;SDS011;66144;50.020;14.422;2023-02-18T02:17:04;3.00;;;1.90;;
77170;SDS011;66144;50.020;14.422;2023-02-18T02:22:29;3.30;;;1.92;;
77170;SDS011;66144;50.020;14.422;2023-02-18T02:50:08;3.72;;;1.90;;
77170;SDS011;66144;50.020;14.422;2023-02-18T02:52:43;4.72;;;1.83;;
77170;SDS011;66144;50.020;14.422;2023-02-18T02:55:13;3.08;;;1.70;;
77170;SDS011;66144;50.020;14.422;2023-02-18T02:57:43;2.97;;;1.50;;
77170;SDS011;66144;50.020;14.422;2023-02-18T03:00:11;5.68;;;1.73;;
77170;SDS011;66144;50.020;14.422;2023-02-18T03:05:31;3.25;;;1.60;;
77170;SDS011;66144;50.020;14.422;2023-02-18T03:11:14;3.15;;;1.40;;
77170;SDS011;66144;50.020;14.422;2023-02-18T03:16:26;4.93;;;1.50;;
77170;SDS011;66144;50.020;14.422;2023-02-18T03:19:10;2.90;;;1.60;;
77170;SDS011;66144;50.020;14.422;2023-02-18T03:21:56;2.80;;;1.40;;
77170;SDS011;66144;50.020;14.422;2023-02-18T03:24:29;3.30;;;1.52;;
77170;SDS011;66144;50.020;14.422;2023-02-18T03:26:59;2.63;;;1.55;;
77170;SDS011;66144;50.020;14.422;2023-02-18T03:29:31;2.72;;;1.30;;
77170;SDS011;66144;50.020;14.422;2023-02-18T03:31:59;2.50;;;1.67;;
77170;SDS011;66144;50.020;14.422;2023-02-18T03:34:29;2.75;;;1.40;;
77170;SDS011;66144;50.020;14.422;2023-02-18T03:36:57;3.90;;;1.45;;
77170;SDS011;66144;50.020;14.422;2023-02-18T03:39:25;3.53;;;1.50;;
77170;SDS011;66144;50.020;14.422;2023-02-18T03:41:53;2.75;;;1.45;;
77170;SDS011;66144;50.020;14.422;2023-02-18T03:44:18;2.90;;;1.33;;
77170;SDS011;66144;50.020;14.422;2023-02-18T03:46:43;2.78;;;1.35;;
77170;SDS011;66144;50.020;14.422;2023-02-18T03:49:10;2.67;;;1.40;;
77170;SDS011;66144;50.020;14.422;2023-02-18T03:51:37;2.45;;;1.45;;
77170;SDS011;66144;50.020;14.422;2023-02-18T03:54:02;3.08;;;1.80;;
77170;SDS011;66144;50.020;14.422;2023-02-18T03:56:28;2.75;;;1.58;;
77170;SDS011;66144;50.020;14.422;2023-02-18T03:58:53;3.47;;;1.38;;
77170;SDS011;66144;50.020;14.422;2023-02-18T04:01:19;4.05;;;1.40;;
77170;SDS011;66144;50.020;14.422;2023-02-18T04:03:44;2.95;;;1.50;;
77170;SDS011;66144;50.020;14.422;2023-02-18T04:06:10;2.10;;;1.23;;
77170;SDS011;66144;50.020;14.422;2023-02-18T04:08:35;3.75;;;1.60;;
77170;SDS011;66144;50.020;14.422;2023-02-18T04:11:01;3.13;;;1.50;;
77170;SDS011;66144;50.020;14.422;2023-02-18T04:13:26;2.85;;;1.65;;
77170;SDS011;66144;50.020;14.422;2023-02-18T04:15:52;3.17;;;1.42;;
77170;SDS011;66144;50.020;14.422;2023-02-18T04:18:17;3.05;;;1.23;;
77170;SDS011;66144;50.020;14.422;2023-02-18T04:20:43;3.20;;;1.55;;
77170;SDS011;66144;50.020;14.422;2023-02-18T04:23:10;3.10;;;1.73;;
77170;SDS011;66144;50.020;14.422;2023-02-18T04:25:35;3.28;;;1.85;;
77170;SDS011;66144;50.020;14.422;2023-02-18T04:28:01;4.57;;;1.73;;
77170;SDS011;66144;50.020;14.422;2023-02-18T04:30:26;4.28;;;2.00;;
77170;SDS011;66144;50.020;14.422;2023-02-18T04:32:52;3.92;;;2.00;;
77170;SDS011;66144;50.020;14.422;2023-02-18T04:35:17;3.63;;;1.80;;
77170;SDS011;66144;50.020;14.422;2023-02-18T04:37:43;3.17;;;1.70;;
77170;SDS011;66144;50.020;14.422;2023-02-18T04:40:09;3.25;;;1.65;;
77170;SDS011;66144;50.020;14.422;2023-02-18T04:42:34;2.22;;;1.15;;
77170;SDS011;66144;50.020;14.422;2023-02-18T04:45:00;3.25;;;1.80;;
77170;SDS011;66144;50.020;14.422;2023-02-18T04:47:26;4.47;;;1.60;;
77170;SDS011;66144;50.020;14.422;2023-02-18T04:49:51;4.10;;;1.58;;
77170;SDS011;66144;50.020;14.422;2023-02-18T04:52:16;4.97;;;1.63;;
77170;SDS011;66144;50.020;14.422;2023-02-18T04:54:42;2.55;;;1.48;;
77170;SDS011;66144;50.020;14.422;2023-02-18T04:57:07;3.78;;;1.48;;
77170;SDS011;66144;50.020;14.422;2023-02-18T04:59:33;3.92;;;1.80;;
77170;SDS011;66144;50.020;14.422;2023-02-18T05:01:58;3.75;;;1.95;;
77170;SDS011;66144;50.020;14.422;2023-02-18T05:04:23;2.75;;;1.42;;
77170;SDS011;66144;50.020;14.422;2023-02-18T05:06:49;4.22;;;1.70;;
77170;SDS011;66144;50.020;14.422;2023-02-18T05:09:14;3.25;;;1.50;;
77170;SDS011;66144;50.020;14.422;2023-02-18T05:11:40;4.68;;;1.85;;
77170;SDS011;66144;50.020;14.422;2023-02-18T05:14:06;2.97;;;1.38;;
77170;SDS011;66144;50.020;14.422;2023-02-18T05:16:31;2.83;;;1.42;;
77170;SDS011;66144;50.020;14.422;2023-02-18T05:18:57;4.00;;;1.55;;
77170;SDS011;66144;50.020;14.422;2023-02-18T05:21:22;2.50;;;1.35;;
77170;SDS011;66144;50.020;14.422;2023-02-18T05:23:47;3.72;;;1.50;;
77170;SDS011;66144;50.020;14.422;2023-02-18T05:26:13;2.90;;;1.40;;
77170;SDS011;66144;50.020;14.422;2023-02-18T05:28:38;3.13;;;1.52;;
77170;SDS011;66144;50.020;14.422;2023-02-18T05:31:03;2.97;;;1.35;;
77170;SDS011;66144;50.020;14.422;2023-02-18T05:33:29;3.60;;;1.80;;
77170;SDS011;66144;50.020;14.422;2023-02-18T05:35:54;4.65;;;1.40;;
77170;SDS011;66144;50.020;14.422;2023-02-18T05:38:20;2.90;;;1.20;;
77170;SDS011;66144;50.020;14.422;2023-02-18T05:40:45;2.30;;;1.23;;
77170;SDS011;66144;50.020;14.422;2023-02-18T05:43:11;3.05;;;1.52;;
77170;SDS011;66144;50.020;14.422;2023-02-18T05:45:37;2.00;;;1.23;;
77170;SDS011;66144;50.020;14.422;2023-02-18T05:48:03;3.90;;;1.33;;
77170;SDS011;66144;50.020;14.422;2023-02-18T05:50:28;3.65;;;1.13;;
77170;SDS011;66144;50.020;14.422;2023-02-18T05:52:54;2.90;;;1.45;;
77170;SDS011;66144;50.020;14.422;2023-02-18T05:55:19;2.97;;;1.60;;
77170;SDS011;66144;50.020;14.422;2023-02-18T05:57:44;3.45;;;1.88;;
77170;SDS011;66144;50.020;14.422;2023-02-18T06:00:10;4.28;;;1.73;;
77170;SDS011;66144;50.020;14.422;2023-02-18T06:02:36;1.98;;;1.10;;
77170;SDS011;66144;50.020;14.422;2023-02-18T06:05:02;3.17;;;1.42;;
77170;SDS011;66144;50.020;14.422;2023-02-18T06:07:28;3.30;;;1.45;;
77170;SDS011;66144;50.020;14.422;2023-02-18T06:09:53;4.97;;;1.50;;
77170;SDS011;66144;50.020;14.422;2023-02-18T06:12:19;2.33;;;1.25;;
77170;SDS011;66144;50.020;14.422;2023-02-18T06:14:44;3.97;;;1.50;;
77170;SDS011;66144;50.020;14.422;2023-02-18T06:17:10;3.08;;;1.50;;
77170;SDS011;66144;50.020;14.422;2023-02-18T06:19:37;2.55;;;1.50;;
77170;SDS011;66144;50.020;14.422;2023-02-18T06:22:02;2.80;;;1.25;;
77170;SDS011;66144;50.020;14.422;2023-02-18T06:24:28;3.03;;;1.50;;
77170;SDS011;66144;50.020;14.422;2023-02-18T06:26:53;2.97;;;1.40;;
77170;SDS011;66144;50.020;14.422;2023-02-18T06:29:19;2.05;;;1.23;;
77170;SDS011;66144;50.020;14.422;2023-02-18T06:31:44;2.15;;;1.20;;
77170;SDS011;66144;50.020;14.422;2023-02-18T06:34:09;2.50;;;1.17;;
77170;SDS011;66144;50.020;14.422;2023-02-18T06:36:35;2.70;;;1.20;;
77170;SDS011;66144;50.020;14.422;2023-02-18T06:39:01;2.75;;;1.25;;
77170;SDS011;66144;50.020;14.422;2023-02-18T06:41:28;3.15;;;1.00;;
77170;SDS011;66144;50.020;14.422;2023-02-18T06:43:53;2.75;;;1.30;;
77170;SDS011;66144;50.020;14.422;2023-02-18T06:46:18;3.35;;;1.30;;
77170;SDS011;66144;50.020;14.422;2023-02-18T06:48:44;3.90;;;1.20;;
77170;SDS011;66144;50.020;14.422;2023-02-18T06:51:09;2.33;;;1.20;;
77170;SDS011;66144;50.020;14.422;2023-02-18T06:53:34;2.33;;;1.33;;
77170;SDS011;66144;50.020;14.422;2023-02-18T06:56:00;2.50;;;1.25;;
77170;SDS011;66144;50.020;14.422;2023-02-18T06:58:25;2.65;;;1.00;;
77170;SDS011;66144;50.020;14.422;2023-02-18T07:00:51;2.03;;;0.90;;
77170;SDS011;66144;50.020;14.422;2023-02-18T07:03:16;2.50;;;1.15;;
77170;SDS011;66144;50.020;14.422;2023-02-18T07:05:42;2.00;;;1.27;;
77170;SDS011;66144;50.020;14.422;2023-02-18T07:08:07;1.75;;;1.30;;
77170;SDS011;66144;50.020;14.422;2023-02-18T07:10:33;4.35;;;1.30;;
77170;SDS011;66144;50.020;14.422;2023-02-18T07:12:58;3.42;;;1.67;;
77170;SDS011;66144;50.020;14.422;2023-02-18T07:15:24;4.43;;;1.50;;
77170;SDS011;66144;50.020;14.422;2023-02-18T07:17:52;2.60;;;1.30;;
77170;SDS011;66144;50.020;14.422;2023-02-18T07:20:19;2.83;;;1.27;;
77170;SDS011;66144;50.020;14.422;2023-02-18T07:22:45;2.03;;;1.15;;
77170;SDS011;66144;50.020;14.422;2023-02-18T07:25:11;2.97;;;1.23;;
77170;SDS011;66144;50.020;14.422;2023-02-18T07:27:36;3.97;;;1.30;;
77170;SDS011;66144;50.020;14.422;2023-02-18T07:30:01;3.67;;;1.30;;
77170;SDS011;66144;50.020;14.422;2023-02-18T07:32:27;2.05;;;1.10;;
77170;SDS011;66144;50.020;14.422;2023-02-18T07:34:52;1.70;;;1.25;;
77170;SDS011;66144;50.020;14.422;2023-02-18T07:37:18;1.85;;;1.20;;
77170;SDS011;66144;50.020;14.422;2023-02-18T07:39:44;2.92;;;1.35;;
77170;SDS011;66144;50.020;14.422;2023-02-18T07:42:10;2.75;;;1.25;;
77170;SDS011;66144;50.020;14.422;2023-02-18T07:44:36;2.45;;;1.33;;
77170;SDS011;66144;50.020;14.422;2023-02-18T07:47:02;5.65;;;1.35;;
77170;SDS011;66144;50.020;14.422;2023-02-18T07:49:29;2.00;;;1.10;;
77170;SDS011;66144;50.020;14.422;2023-02-18T07:51:55;2.40;;;1.13;;
77170;SDS011;66144;50.020;14.422;2023-02-18T07:54:20;2.20;;;1.23;;
77170;SDS011;66144;50.020;14.422;2023-02-18T07:56:46;3.17;;;1.35;;
77170;SDS011;66144;50.020;14.422;2023-02-18T07:59:12;2.40;;;1.30;;
77170;SDS011;66144;50.020;14.422;2023-02-18T08:01:38;2.97;;;1.10;;
77170;SDS011;66144;50.020;14.422;2023-02-18T08:04:04;3.30;;;1.02;;
77170;SDS011;66144;50.020;14.422;2023-02-18T08:06:32;1.83;;;1.27;;
77170;SDS011;66144;50.020;14.422;2023-02-18T08:09:00;1.80;;;1.10;;
77170;SDS011;66144;50.020;14.422;2023-02-18T08:11:25;1.90;;;1.10;;
77170;SDS011;66144;50.020;14.422;2023-02-18T08:13:50;2.38;;;1.23;;
77170;SDS011;66144;50.020;14.422;2023-02-18T08:16:16;1.75;;;0.90;;
77170;SDS011;66144;50.020;14.422;2023-02-18T08:18:43;1.70;;;0.98;;
77170;SDS011;66144;50.020;14.422;2023-02-18T08:21:09;1.40;;;0.80;;
77170;SDS011;66144;50.020;14.422;2023-02-18T08:23:35;1.95;;;1.02;;
77170;SDS011;66144;50.020;14.422;2023-02-18T08:26:00;1.92;;;1.00;;
77170;SDS011;66144;50.020;14.422;2023-02-18T08:28:26;3.05;;;1.00;;
77170;SDS011;66144;50.020;14.422;2023-02-18T08:30:52;1.95;;;0.80;;
77170;SDS011;66144;50.020;14.422;2023-02-18T08:33:19;1.23;;;0.73;;
77170;SDS011;66144;50.020;14.422;2023-02-18T08:35:45;1.40;;;0.80;;
77170;SDS011;66144;50.020;14.422;2023-02-18T08:38:12;1.50;;;0.95;;
77170;SDS011;66144;50.020;14.422;2023-02-18T08:40:37;1.80;;;0.82;;
77170;SDS011;66144;50.020;14.422;2023-02-18T08:43:02;1.27;;;0.88;;
77170;SDS011;66144;50.020;14.422;2023-02-18T08:45:28;2.90;;;1.20;;
77170;SDS011;66144;50.020;14.422;2023-02-18T08:47:53;1.50;;;0.82;;
77170;SDS011;66144;50.020;14.422;2023-02-18T08:50:19;0.70;;;0.60;;
77170;SDS011;66144;50.020;14.422;2023-02-18T08:52:45;2.15;;;0.90;;
77170;SDS011;66144;50.020;14.422;2023-02-18T08:55:11;0.98;;;0.60;;
77170;SDS011;66144;50.020;14.422;2023-02-18T08:57:37;1.02;;;0.60;;
77170;SDS011;66144;50.020;14.422;2023-02-18T09:00:03;0.90;;;0.68;;
77170;SDS011;66144;50.020;14.422;2023-02-18T09:02:30;1.23;;;0.60;;
77170;SDS011;66144;50.020;14.422;2023-02-18T09:04:55;0.52;;;0.50;;
77170;SDS011;66144;50.020;14.422;2023-02-18T09:07:20;0.60;;;0.40;;
77170;SDS011;66144;50.020;14.422;2023-02-18T09:09:46;1.67;;;0.57;;
77170;SDS011;66144;50.020;14.422;2023-02-18T09:12:11;4.22;;;0.60;;
77170;SDS011;66144;50.020;14.422;2023-02-18T09:14:37;1.05;;;0.50;;
77170;SDS011;66144;50.020;14.422;2023-02-18T09:17:02;1.08;;;0.60;;
77170;SDS011;66144;50.020;14.422;2023-02-18T09:19:27;1.83;;;0.63;;
77170;SDS011;66144;50.020;14.422;2023-02-18T09:21:53;1.00;;;0.63;;
77170;SDS011;66144;50.020;14.422;2023-02-18T09:24:18;1.13;;;0.55;;
77170;SDS011;66144;50.020;14.422;2023-02-18T09:26:44;1.00;;;0.57;;
77170;SDS011;66144;50.020;14.422;2023-02-18T09:29:10;1.02;;;0.50;;
77170;SDS011;66144;50.020;14.422;2023-02-18T09:31:35;1.13;;;0.65;;
77170;SDS011;66144;50.020;14.422;2023-02-18T09:34:03;2.28;;;0.50;;
77170;SDS011;66144;50.020;14.422;2023-02-18T09:36:29;1.10;;;0.70;;
77170;SDS011;66144;50.020;14.422;2023-02-18T09:38:55;0.65;;;0.60;;
77170;SDS011;66144;50.020;14.422;2023-02-18T09:41:37;0.88;;;0.50;;
77170;SDS011;66144;50.020;14.422;2023-02-18T09:46:54;1.02;;;0.40;;
77170;SDS011;66144;50.020;14.422;2023-02-18T09:49:28;0.50;;;0.50;;
77170;SDS011;66144;50.020;14.422;2023-02-18T09:52:06;0.75;;;0.40;;
77170;SDS011;66144;50.020;14.422;2023-02-18T09:54:47;1.80;;;0.40;;
77170;SDS011;66144;50.020;14.422;2023-02-18T09:57:58;1.30;;;0.63;;
77170;SDS011;66144;50.020;14.422;2023-02-18T10:00:15;1.02;;;0.50;;
77170;SDS011;66144;50.020;14.422;2023-02-18T10:05:40;0.90;;;0.50;;
77170;SDS011;66144;50.020;14.422;2023-02-18T10:08:18;2.15;;;0.82;;
77170;SDS011;66144;50.020;14.422;2023-02-18T10:10:48;1.15;;;0.60;;
77170;SDS011;66144;50.020;14.422;2023-02-18T10:13:18;1.48;;;0.80;;
77170;SDS011;66144;50.020;14.422;2023-02-18T10:15:46;2.70;;;0.90;;
77170;SDS011;66144;50.020;14.422;2023-02-18T10:20:44;1.40;;;0.73;;
77170;SDS011;66144;50.020;14.422;2023-02-18T10:23:09;1.20;;;0.80;;
77170;SDS011;66144;50.020;14.422;2023-02-18T10:25:37;1.95;;;0.70;;
77170;SDS011;66144;50.020;14.422;2023-02-18T10:28:08;0.70;;;0.55;;
77170;SDS011;66144;50.020;14.422;2023-02-18T10:30:37;0.85;;;0.70;;
77170;SDS011;66144;50.020;14.422;2023-02-18T10:33:52;0.82;;;0.57;;
77170;SDS011;66144;50.020;14.422;2023-02-18T10:36:07;0.77;;;0.70;;
77170;SDS011;66144;50.020;14.422;2023-02-18T10:38:39;1.88;;;0.88;;
77170;SDS011;66144;50.020;14.422;2023-02-18T10:41:35;1.27;;;0.88;;
77170;SDS011;66144;50.020;14.422;2023-02-18T10:52:54;1.23;;;0.60;;
77170;SDS011;66144;50.020;14.422;2023-02-18T10:55:37;1.65;;;0.80;;
77170;SDS011;66144;50.020;14.422;2023-02-18T10:58:22;1.42;;;0.80;;
77170;SDS011;66144;50.020;14.422;2023-02-18T11:00:51;1.42;;;0.75;;
77170;SDS011;66144;50.020;14.422;2023-02-18T11:03:18;2.50;;;0.90;;
77170;SDS011;66144;50.020;14.422;2023-02-18T11:05:47;1.27;;;0.77;;
77170;SDS011;66144;50.020;14.422;2023-02-18T11:08:21;1.90;;;0.88;;
77170;SDS011;66144;50.020;14.422;2023-02-18T11:10:50;1.65;;;0.80;;
77170;SDS011;66144;50.020;14.422;2023-02-18T11:13:21;1.80;;;0.90;;
77170;SDS011;66144;50.020;14.422;2023-02-18T11:15:58;3.33;;;1.42;;
77170;SDS011;66144;50.020;14.422;2023-02-18T11:18:39;1.90;;;1.20;;
77170;SDS011;66144;50.020;14.422;2023-02-18T11:21:50;2.30;;;1.30;;
77170;SDS011;66144;50.020;14.422;2023-02-18T11:23:55;4.50;;;1.35;;
77170;SDS011;66144;50.020;14.422;2023-02-18T11:26:31;2.50;;;1.40;;
77170;SDS011;66144;50.020;14.422;2023-02-18T11:29:03;3.10;;;1.85;;
77170;SDS011;66144;50.020;14.422;2023-02-18T11:34:09;3.45;;;1.80;;
77170;SDS011;66144;50.020;14.422;2023-02-18T11:36:55;3.53;;;2.00;;
77170;SDS011;66144;50.020;14.422;2023-02-18T11:39:33;3.35;;;2.00;;
77170;SDS011;66144;50.020;14.422;2023-02-18T11:42:02;2.47;;;1.50;;
77170;SDS011;66144;50.020;14.422;2023-02-18T11:44:37;3.25;;;1.77;;
77170;SDS011;66144;50.020;14.422;2023-02-18T11:47:18;5.43;;;2.40;;
77170;SDS011;66144;50.020;14.422;2023-02-18T11:50:10;3.92;;;1.88;;
77170;SDS011;66144;50.020;14.422;2023-02-18T11:55:20;4.47;;;2.47;;
77170;SDS011;66144;50.020;14.422;2023-02-18T11:58:00;3.25;;;2.22;;
77170;SDS011;66144;50.020;14.422;2023-02-18T12:00:42;4.53;;;2.40;;
77170;SDS011;66144;50.020;14.422;2023-02-18T12:06:17;4.05;;;2.42;;
77170;SDS011;66144;50.020;14.422;2023-02-18T12:08:58;5.05;;;2.33;;
77170;SDS011;66144;50.020;14.422;2023-02-18T12:11:33;7.32;;;2.70;;
77170;SDS011;66144;50.020;14.422;2023-02-18T12:14:07;4.13;;;2.50;;
77170;SDS011;66144;50.020;14.422;2023-02-18T12:25:30;4.40;;;2.65;;
77170;SDS011;66144;50.020;14.422;2023-02-18T12:28:03;5.28;;;3.30;;
77170;SDS011;66144;50.020;14.422;2023-02-18T12:33:18;6.90;;;3.20;;
77170;SDS011;66144;50.020;14.422;2023-02-18T12:36:11;4.65;;;2.95;;
77170;SDS011;66144;50.020;14.422;2023-02-18T12:44:25;5.05;;;3.53;;
77170;SDS011;66144;50.020;14.422;2023-02-18T13:11:24;4.32;;;2.80;;
77170;SDS011;66144;50.020;14.422;2023-02-18T13:16:52;4.55;;;2.72;;
77170;SDS011;66144;50.020;14.422;2023-02-18T13:19:32;5.13;;;3.05;;
77170;SDS011;66144;50.020;14.422;2023-02-18T13:22:03;5.15;;;3.40;;
77170;SDS011;66144;50.020;14.422;2023-02-18T13:24:34;4.20;;;2.60;;
77170;SDS011;66144;50.020;14.422;2023-02-18T13:29:38;3.95;;;2.50;;
77170;SDS011;66144;50.020;14.422;2023-02-18T13:35:16;5.35;;;2.90;;
77170;SDS011;66144;50.020;14.422;2023-02-18T13:40:22;4.50;;;2.92;;
77170;SDS011;66144;50.020;14.422;2023-02-18T13:42:54;5.30;;;2.65;;
77170;SDS011;66144;50.020;14.422;2023-02-18T13:45:39;4.82;;;3.17;;
77170;SDS011;66144;50.020;14.422;2023-02-18T13:48:05;5.00;;;3.25;;
77170;SDS011;66144;50.020;14.422;2023-02-18T13:50:50;4.55;;;2.75;;
77170;SDS011;66144;50.020;14.422;2023-02-18T13:53:22;4.45;;;2.92;;
77170;SDS011;66144;50.020;14.422;2023-02-18T13:55:51;5.97;;;3.10;;
77170;SDS011;66144;50.020;14.422;2023-02-18T13:58:41;3.55;;;2.33;;
77170;SDS011;66144;50.020;14.422;2023-02-18T14:04:01;5.15;;;2.90;;
77170;SDS011;66144;50.020;14.422;2023-02-18T14:06:36;4.20;;;2.70;;
77170;SDS011;66144;50.020;14.422;2023-02-18T14:09:34;4.05;;;2.85;;
77170;SDS011;66144;50.020;14.422;2023-02-18T14:14:46;5.70;;;2.60;;
77170;SDS011;66144;50.020;14.422;2023-02-18T14:22:25;6.53;;;2.78;;
77170;SDS011;66144;50.020;14.422;2023-02-18T14:25:16;4.72;;;3.00;;
77170;SDS011;66144;50.020;14.422;2023-02-18T14:27:54;5.05;;;3.10;;
77170;SDS011;66144;50.020;14.422;2023-02-18T14:30:28;5.28;;;2.70;;
77170;SDS011;66144;50.020;14.422;2023-02-18T14:33:01;5.00;;;3.20;;
77170;SDS011;66144;50.020;14.422;2023-02-18T14:35:42;7.63;;;3.08;;
77170;SDS011;66144;50.020;14.422;2023-02-18T14:43:36;5.47;;;3.35;;
77170;SDS011;66144;50.020;14.422;2023-02-18T14:51:24;7.13;;;3.95;;
77170;SDS011;66144;50.020;14.422;2023-02-18T14:53:53;4.90;;;3.13;;
77170;SDS011;66144;50.020;14.422;2023-02-18T14:56:18;5.10;;;2.80;;
77170;SDS011;66144;50.020;14.422;2023-02-18T14:58:49;4.88;;;2.95;;
77170;SDS011;66144;50.020;14.422;2023-02-18T15:01:22;7.03;;;3.08;;
77170;SDS011;66144;50.020;14.422;2023-02-18T15:03:55;5.60;;;3.05;;
77170;SDS011;66144;50.020;14.422;2023-02-18T15:06:26;4.90;;;2.70;;
77170;SDS011;66144;50.020;14.422;2023-02-18T15:08:52;5.88;;;3.00;;
77170;SDS011;66144;50.020;14.422;2023-02-18T15:11:18;4.80;;;2.95;;
77170;SDS011;66144;50.020;14.422;2023-02-18T15:13:46;5.40;;;3.03;;
77170;SDS011;66144;50.020;14.422;2023-02-18T15:16:13;3.72;;;2.47;;
77170;SDS011;66144;50.020;14.422;2023-02-18T15:18:43;5.00;;;2.85;;
77170;SDS011;66144;50.020;14.422;2023-02-18T15:27:10;3.45;;;2.20;;
77170;SDS011;66144;50.020;14.422;2023-02-18T15:29:36;4.28;;;2.45;;
77170;SDS011;66144;50.020;14.422;2023-02-18T15:32:19;5.28;;;2.65;;
77170;SDS011;66144;50.020;14.422;2023-02-18T15:34:51;3.85;;;2.28;;
77170;SDS011;66144;50.020;14.422;2023-02-18T15:37:21;4.30;;;2.35;;
77170;SDS011;66144;50.020;14.422;2023-02-18T15:39:47;5.30;;;2.70;;
77170;SDS011;66144;50.020;14.422;2023-02-18T15:42:18;6.03;;;2.53;;
77170;SDS011;66144;50.020;14.422;2023-02-18T15:44:51;4.18;;;2.15;;
77170;SDS011;66144;50.020;14.422;2023-02-18T15:47:20;6.05;;;2.83;;
77170;SDS011;66144;50.020;14.422;2023-02-18T15:49:48;4.90;;;2.55;;
77170;SDS011;66144;50.020;14.422;2023-02-18T15:52:22;4.05;;;2.25;;
77170;SDS011;66144;50.020;14.422;2023-02-18T15:54:52;4.57;;;2.30;;
77170;SDS011;66144;50.020;14.422;2023-02-18T15:57:18;6.00;;;2.45;;
77170;SDS011;66144;50.020;14.422;2023-02-18T15:59:56;4.72;;;2.28;;
77170;SDS011;66144;50.020;14.422;2023-02-18T16:02:28;4.07;;;2.00;;
77170;SDS011;66144;50.020;14.422;2023-02-18T16:04:56;4.47;;;2.15;;
77170;SDS011;66144;50.020;14.422;2023-02-18T16:07:27;4.22;;;2.40;;
77170;SDS011;66144;50.020;14.422;2023-02-18T16:12:57;3.70;;;2.05;;
77170;SDS011;66144;50.020;14.422;2023-02-18T16:15:27;4.80;;;1.85;;
77170;SDS011;66144;50.020;14.422;2023-02-18T16:17:55;3.80;;;2.03;;
77170;SDS011;66144;50.020;14.422;2023-02-18T16:20:29;2.88;;;1.70;;
77170;SDS011;66144;50.020;14.422;2023-02-18T16:23:01;3.40;;;1.90;;
77170;SDS011;66144;50.020;14.422;2023-02-18T16:25:49;3.17;;;1.70;;
77170;SDS011;66144;50.020;14.422;2023-02-18T16:28:16;2.90;;;1.65;;
77170;SDS011;66144;50.020;14.422;2023-02-18T16:30:47;3.97;;;2.35;;
77170;SDS011;66144;50.020;14.422;2023-02-18T16:33:13;2.90;;;1.70;;
77170;SDS011;66144;50.020;14.422;2023-02-18T16:35:39;3.20;;;1.33;;
77170;SDS011;66144;50.020;14.422;2023-02-18T16:38:05;3.10;;;1.50;;
77170;SDS011;66144;50.020;14.422;2023-02-18T16:40:32;5.30;;;1.70;;
77170;SDS011;66144;50.020;14.422;2023-02-18T16:43:10;3.65;;;1.20;;
77170;SDS011;66144;50.020;14.422;2023-02-18T16:45:44;2.65;;;1.50;;
77170;SDS011;66144;50.020;14.422;2023-02-18T16:48:55;5.80;;;1.50;;
77170;SDS011;66144;50.020;14.422;2023-02-18T16:51:25;1.52;;;1.10;;
77170;SDS011;66144;50.020;14.422;2023-02-18T16:53:56;2.05;;;1.38;;
77170;SDS011;66144;50.020;14.422;2023-02-18T16:56:22;2.00;;;1.10;;
77170;SDS011;66144;50.020;14.422;2023-02-18T16:58:49;2.30;;;1.45;;
77170;SDS011;66144;50.020;14.422;2023-02-18T17:06:24;1.00;;;0.70;;
77170;SDS011;66144;50.020;14.422;2023-02-18T17:08:50;2.25;;;1.00;;
77170;SDS011;66144;50.020;14.422;2023-02-18T17:11:20;2.20;;;0.90;;
77170;SDS011;66144;50.020;14.422;2023-02-18T17:13:48;1.38;;;0.73;;
77170;SDS011;66144;50.020;14.422;2023-02-18T17:16:14;2.45;;;1.02;;
77170;SDS011;66144;50.020;14.422;2023-02-18T17:18:40;1.70;;;0.82;;